sensor_id;sensor_type;location;lat;lon;timestamp;P1;durP1;ratioP1;P2;durP2;ratioP2
14734;SDS011;7458;49.002;8.472;2024-03-06T00:01:48;9.07;;;6.97;;
14734;SDS011;7458;49.002;8.472;2024-03-06T00:04:14;8.30;;;7.32;;
14734;SDS011;7458;49.002;8.472;2024-03-06T00:06:40;10.35;;;6.80;;
14734;SDS011;7458;49.002;8.472;2024-03-06T00:09:06;10.93;;;8.40;;
14734;SDS011;7458;49.002;8.472;2024-03-06T00:11:33;11.52;;;7.93;;
14734;SDS011;7458;49.002;8.472;2024-03-06T00:14:02;9.10;;;7.13;;
14734;SDS011;7458;49.002;8.472;2024-03-06T00:16:30;11.05;;;8.45;;
14734;SDS011;7458;49.002;8.472;2024-03-06T00:18:57;10.55;;;6.03;;
14734;SDS011;7458;49.002;8.472;2024-03-06T00:21:23;8.07;;;7.32;;
14734;SDS011;7458;49.002;8.472;2024-03-06T00:23:49;12.90;;;7.10;;
14734;SDS011;7458;49.002;8.472;2024-03-06T00:26:15;8.65;;;6.97;;
14734;SDS011;7458;49.002;8.472;2024-03-06T00:28:40;10.95;;;7.25;;
14734;SDS011;7458;49.002;8.472;2024-03-06T00:31:07;8.30;;;7.43;;
14734;SDS011;7458;49.002;8.472;2024-03-06T00:33:33;10.63;;;7.20;;
14734;SDS011;7458;49.002;8.472;2024-03-06T00:35:59;10.50;;;7.93;;
14734;SDS011;7458;49.002;8.472;2024-03-06T00:38:25;9.48;;;6.78;;
14734;SDS011;7458;49.002;8.472;2024-03-06T00:40:51;9.95;;;8.35;;
14734;SDS011;7458;49.002;8.472;2024-03-06T00:43:17;11.18;;;7.70;;
14734;SDS011;7458;49.002;8.472;2024-03-06T00:45:43;9.80;;;6.40;;
14734;SDS011;7458;49.002;8.472;2024-03-06T00:48:10;7.45;;;5.88;;
14734;SDS011;7458;49.002;8.472;2024-03-06T00:50:36;6.93;;;5.68;;
14734;SDS011;7458;49.002;8.472;2024-03-06T00:53:02;5.57;;;4.35;;
14734;SDS011;7458;49.002;8.472;2024-03-06T00:55:29;4.15;;;3.03;;
14734;SDS011;7458;49.002;8.472;2024-03-06T00:57:55;6.18;;;4.18;;
14734;SDS011;7458;49.002;8.472;2024-03-06T01:00:21;6.70;;;4.30;;
14734;SDS011;7458;49.002;8.472;2024-03-06T01:02:48;9.90;;;3.92;;
14734;SDS011;7458;49.002;8.472;2024-03-06T01:05:14;4.25;;;3.20;;
14734;SDS011;7458;49.002;8.472;2024-03-06T01:07:39;7.85;;;5.50;;
14734;SDS011;7458;49.002;8.472;2024-03-06T01:10:06;5.88;;;3.85;;
14734;SDS011;7458;49.002;8.472;2024-03-06T01:12:33;5.93;;;3.70;;
14734;SDS011;7458;49.002;8.472;2024-03-06T01:14:59;5.30;;;3.58;;
14734;SDS011;7458;49.002;8.472;2024-03-06T01:17:26;7.05;;;4.43;;
14734;SDS011;7458;49.002;8.472;2024-03-06T01:19:51;5.60;;;3.83;;
14734;SDS011;7458;49.002;8.472;2024-03-06T01:22:17;5.25;;;3.50;;
14734;SDS011;7458;49.002;8.472;2024-03-06T01:24:43;3.97;;;3.13;;
14734;SDS011;7458;49.002;8.472;2024-03-06T01:27:09;6.05;;;3.83;;
14734;SDS011;7458;49.002;8.472;2024-03-06T01:29:35;5.75;;;3.28;;
14734;SDS011;7458;49.002;8.472;2024-03-06T01:32:01;8.07;;;4.45;;
14734;SDS011;7458;49.002;8.472;2024-03-06T01:34:27;6.00;;;3.78;;
14734;SDS011;7458;49.002;8.472;2024-03-06T01:36:53;5.65;;;3.70;;
14734;SDS011;7458;49.002;8.472;2024-03-06T01:39:21;7.57;;;3.92;;
14734;SDS011;7458;49.002;8.472;2024-03-06T01:41:47;4.75;;;3.63;;
14734;SDS011;7458;49.002;8.472;2024-03-06T01:44:14;5.18;;;3.17;;
14734;SDS011;7458;49.002;8.472;2024-03-06T01:46:44;6.82;;;5.60;;
14734;SDS011;7458;49.002;8.472;2024-03-06T01:49:12;7.10;;;3.72;;
14734;SDS011;7458;49.002;8.472;2024-03-06T01:51:45;6.50;;;3.47;;
14734;SDS011;7458;49.002;8.472;2024-03-06T01:54:18;6.97;;;4.30;;
14734;SDS011;7458;49.002;8.472;2024-03-06T01:56:46;8.68;;;4.95;;
14734;SDS011;7458;49.002;8.472;2024-03-06T01:59:15;5.72;;;3.75;;
14734;SDS011;7458;49.002;8.472;2024-03-06T02:01:44;3.83;;;3.15;;
14734;SDS011;7458;49.002;8.472;2024-03-06T02:04:11;5.05;;;3.38;;
14734;SDS011;7458;49.002;8.472;2024-03-06T02:06:38;4.35;;;3.25;;
14734;SDS011;7458;49.002;8.472;2024-03-06T02:09:05;14.18;;;3.97;;
14734;SDS011;7458;49.002;8.472;2024-03-06T02:11:34;5.75;;;3.28;;
14734;SDS011;7458;49.002;8.472;2024-03-06T02:14:03;7.18;;;4.72;;
14734;SDS011;7458;49.002;8.472;2024-03-06T02:16:31;4.63;;;3.30;;
14734;SDS011;7458;49.002;8.472;2024-03-06T02:18:57;6.25;;;3.53;;
14734;SDS011;7458;49.002;8.472;2024-03-06T02:21:24;5.93;;;3.83;;
14734;SDS011;7458;49.002;8.472;2024-03-06T02:23:51;7.70;;;4.93;;
14734;SDS011;7458;49.002;8.472;2024-03-06T02:26:18;5.95;;;3.17;;
14734;SDS011;7458;49.002;8.472;2024-03-06T02:28:48;4.75;;;3.30;;
14734;SDS011;7458;49.002;8.472;2024-03-06T02:31:15;6.72;;;3.58;;
14734;SDS011;7458;49.002;8.472;2024-03-06T02:33:42;8.07;;;4.22;;
14734;SDS011;7458;49.002;8.472;2024-03-06T02:36:15;5.65;;;3.28;;
14734;SDS011;7458;49.002;8.472;2024-03-06T02:38:44;5.70;;;4.00;;
14734;SDS011;7458;49.002;8.472;2024-03-06T02:41:11;7.13;;;3.33;;
14734;SDS011;7458;49.002;8.472;2024-03-06T02:43:39;6.15;;;3.40;;
14734;SDS011;7458;49.002;8.472;2024-03-06T02:46:05;3.28;;;2.72;;
14734;SDS011;7458;49.002;8.472;2024-03-06T02:48:31;6.07;;;3.17;;
14734;SDS011;7458;49.002;8.472;2024-03-06T02:50:57;4.60;;;3.17;;
14734;SDS011;7458;49.002;8.472;2024-03-06T02:53:23;10.18;;;3.63;;
14734;SDS011;7458;49.002;8.472;2024-03-06T02:55:50;4.30;;;3.40;;
14734;SDS011;7458;49.002;8.472;2024-03-06T02:58:16;9.57;;;5.25;;
14734;SDS011;7458;49.002;8.472;2024-03-06T03:00:43;4.05;;;2.80;;
14734;SDS011;7458;49.002;8.472;2024-03-06T03:03:09;6.78;;;3.30;;
14734;SDS011;7458;49.002;8.472;2024-03-06T03:05:38;4.30;;;3.55;;
14734;SDS011;7458;49.002;8.472;2024-03-06T03:08:05;7.43;;;3.45;;
14734;SDS011;7458;49.002;8.472;2024-03-06T03:10:32;7.72;;;3.22;;
14734;SDS011;7458;49.002;8.472;2024-03-06T03:12:59;4.38;;;2.58;;
14734;SDS011;7458;49.002;8.472;2024-03-06T03:15:25;7.60;;;2.95;;
14734;SDS011;7458;49.002;8.472;2024-03-06T03:17:51;7.18;;;4.25;;
14734;SDS011;7458;49.002;8.472;2024-03-06T03:20:18;5.47;;;2.90;;
14734;SDS011;7458;49.002;8.472;2024-03-06T03:22:44;3.25;;;2.83;;
14734;SDS011;7458;49.002;8.472;2024-03-06T03:25:10;4.90;;;3.08;;
14734;SDS011;7458;49.002;8.472;2024-03-06T03:27:37;6.00;;;3.63;;
14734;SDS011;7458;49.002;8.472;2024-03-06T03:30:09;7.68;;;3.80;;
14734;SDS011;7458;49.002;8.472;2024-03-06T03:32:36;7.63;;;4.60;;
14734;SDS011;7458;49.002;8.472;2024-03-06T03:35:06;5.47;;;3.17;;
14734;SDS011;7458;49.002;8.472;2024-03-06T03:37:32;4.03;;;3.30;;
14734;SDS011;7458;49.002;8.472;2024-03-06T03:39:59;7.32;;;3.47;;
14734;SDS011;7458;49.002;8.472;2024-03-06T03:42:25;5.90;;;3.08;;
14734;SDS011;7458;49.002;8.472;2024-03-06T03:44:51;4.72;;;3.30;;
14734;SDS011;7458;49.002;8.472;2024-03-06T03:47:18;14.25;;;3.08;;
14734;SDS011;7458;49.002;8.472;2024-03-06T03:49:44;5.18;;;3.30;;
14734;SDS011;7458;49.002;8.472;2024-03-06T03:52:09;4.55;;;3.08;;
14734;SDS011;7458;49.002;8.472;2024-03-06T03:54:37;4.30;;;3.78;;
14734;SDS011;7458;49.002;8.472;2024-03-06T03:57:03;5.82;;;3.80;;
14734;SDS011;7458;49.002;8.472;2024-03-06T03:59:29;3.67;;;2.75;;
14734;SDS011;7458;49.002;8.472;2024-03-06T04:01:55;3.55;;;2.78;;
14734;SDS011;7458;49.002;8.472;2024-03-06T04:04:22;4.30;;;3.50;;
14734;SDS011;7458;49.002;8.472;2024-03-06T04:06:48;5.47;;;3.65;;
14734;SDS011;7458;49.002;8.472;2024-03-06T04:09:14;5.60;;;3.28;;
14734;SDS011;7458;49.002;8.472;2024-03-06T04:11:40;3.85;;;2.78;;
14734;SDS011;7458;49.002;8.472;2024-03-06T04:14:07;4.22;;;2.70;;
14734;SDS011;7458;49.002;8.472;2024-03-06T04:16:34;5.97;;;3.38;;
14734;SDS011;7458;49.002;8.472;2024-03-06T04:19:01;6.40;;;3.33;;
14734;SDS011;7458;49.002;8.472;2024-03-06T04:21:28;4.90;;;3.08;;
14734;SDS011;7458;49.002;8.472;2024-03-06T04:23:54;9.38;;;4.32;;
14734;SDS011;7458;49.002;8.472;2024-03-06T04:26:20;6.82;;;3.35;;
14734;SDS011;7458;49.002;8.472;2024-03-06T04:28:46;5.78;;;3.00;;
14734;SDS011;7458;49.002;8.472;2024-03-06T04:31:13;3.90;;;3.08;;
14734;SDS011;7458;49.002;8.472;2024-03-06T04:33:40;7.85;;;4.88;;
14734;SDS011;7458;49.002;8.472;2024-03-06T04:36:07;3.50;;;3.15;;
14734;SDS011;7458;49.002;8.472;2024-03-06T04:38:33;7.38;;;4.03;;
14734;SDS011;7458;49.002;8.472;2024-03-06T04:40:59;6.20;;;3.25;;
14734;SDS011;7458;49.002;8.472;2024-03-06T04:43:25;6.43;;;3.03;;
14734;SDS011;7458;49.002;8.472;2024-03-06T04:45:52;2.90;;;2.38;;
14734;SDS011;7458;49.002;8.472;2024-03-06T04:48:18;3.72;;;2.90;;
14734;SDS011;7458;49.002;8.472;2024-03-06T04:50:44;8.00;;;4.40;;
14734;SDS011;7458;49.002;8.472;2024-03-06T04:53:10;5.47;;;3.55;;
14734;SDS011;7458;49.002;8.472;2024-03-06T04:55:36;10.80;;;4.28;;
14734;SDS011;7458;49.002;8.472;2024-03-06T04:58:03;5.43;;;4.20;;
14734;SDS011;7458;49.002;8.472;2024-03-06T05:00:29;5.15;;;3.60;;
14734;SDS011;7458;49.002;8.472;2024-03-06T05:02:55;6.72;;;3.92;;
14734;SDS011;7458;49.002;8.472;2024-03-06T05:05:22;4.28;;;2.83;;
14734;SDS011;7458;49.002;8.472;2024-03-06T05:07:48;9.02;;;3.42;;
14734;SDS011;7458;49.002;8.472;2024-03-06T05:10:14;6.43;;;3.67;;
14734;SDS011;7458;49.002;8.472;2024-03-06T05:12:41;4.13;;;3.28;;
14734;SDS011;7458;49.002;8.472;2024-03-06T05:15:07;5.05;;;3.38;;
14734;SDS011;7458;49.002;8.472;2024-03-06T05:17:35;5.68;;;3.60;;
14734;SDS011;7458;49.002;8.472;2024-03-06T05:20:01;6.50;;;3.60;;
14734;SDS011;7458;49.002;8.472;2024-03-06T05:22:28;3.08;;;2.55;;
14734;SDS011;7458;49.002;8.472;2024-03-06T05:24:55;5.68;;;4.70;;
14734;SDS011;7458;49.002;8.472;2024-03-06T05:27:21;4.82;;;3.22;;
14734;SDS011;7458;49.002;8.472;2024-03-06T05:29:47;5.35;;;3.75;;
14734;SDS011;7458;49.002;8.472;2024-03-06T05:32:14;6.80;;;3.17;;
14734;SDS011;7458;49.002;8.472;2024-03-06T05:34:40;4.28;;;3.22;;
14734;SDS011;7458;49.002;8.472;2024-03-06T05:37:06;5.00;;;3.13;;
14734;SDS011;7458;49.002;8.472;2024-03-06T05:39:32;5.20;;;4.25;;
14734;SDS011;7458;49.002;8.472;2024-03-06T05:42:02;5.05;;;3.95;;
14734;SDS011;7458;49.002;8.472;2024-03-06T05:44:32;5.65;;;3.13;;
14734;SDS011;7458;49.002;8.472;2024-03-06T05:46:59;6.25;;;3.33;;
14734;SDS011;7458;49.002;8.472;2024-03-06T05:49:27;3.65;;;2.78;;
14734;SDS011;7458;49.002;8.472;2024-03-06T05:51:53;6.68;;;2.75;;
14734;SDS011;7458;49.002;8.472;2024-03-06T05:54:20;3.72;;;3.13;;
14734;SDS011;7458;49.002;8.472;2024-03-06T05:56:48;7.53;;;3.17;;
14734;SDS011;7458;49.002;8.472;2024-03-06T05:59:17;5.00;;;3.72;;
14734;SDS011;7458;49.002;8.472;2024-03-06T06:01:43;5.22;;;3.17;;
14734;SDS011;7458;49.002;8.472;2024-03-06T06:04:10;31.30;;;18.20;;
14734;SDS011;7458;49.002;8.472;2024-03-06T06:06:38;7.00;;;4.35;;
14734;SDS011;7458;49.002;8.472;2024-03-06T06:09:04;8.07;;;3.85;;
14734;SDS011;7458;49.002;8.472;2024-03-06T06:11:32;9.55;;;5.43;;
14734;SDS011;7458;49.002;8.472;2024-03-06T06:13:58;7.38;;;4.80;;
14734;SDS011;7458;49.002;8.472;2024-03-06T06:16:25;5.03;;;4.15;;
14734;SDS011;7458;49.002;8.472;2024-03-06T06:18:51;9.68;;;5.07;;
14734;SDS011;7458;49.002;8.472;2024-03-06T06:21:17;7.47;;;3.78;;
14734;SDS011;7458;49.002;8.472;2024-03-06T06:23:44;6.80;;;4.25;;
14734;SDS011;7458;49.002;8.472;2024-03-06T06:26:10;5.32;;;3.47;;
14734;SDS011;7458;49.002;8.472;2024-03-06T06:28:36;6.80;;;4.97;;
14734;SDS011;7458;49.002;8.472;2024-03-06T06:31:05;6.15;;;3.97;;
14734;SDS011;7458;49.002;8.472;2024-03-06T06:33:31;6.07;;;4.22;;
14734;SDS011;7458;49.002;8.472;2024-03-06T06:35:57;13.32;;;5.05;;
14734;SDS011;7458;49.002;8.472;2024-03-06T06:38:23;6.25;;;4.40;;
14734;SDS011;7458;49.002;8.472;2024-03-06T06:40:49;7.82;;;4.75;;
14734;SDS011;7458;49.002;8.472;2024-03-06T06:43:16;6.00;;;4.95;;
14734;SDS011;7458;49.002;8.472;2024-03-06T06:45:42;8.82;;;4.10;;
14734;SDS011;7458;49.002;8.472;2024-03-06T06:48:08;8.30;;;4.25;;
14734;SDS011;7458;49.002;8.472;2024-03-06T06:50:34;6.00;;;4.88;;
14734;SDS011;7458;49.002;8.472;2024-03-06T06:53:01;6.63;;;4.55;;
14734;SDS011;7458;49.002;8.472;2024-03-06T06:55:27;7.57;;;4.57;;
14734;SDS011;7458;49.002;8.472;2024-03-06T06:57:53;6.40;;;5.60;;
14734;SDS011;7458;49.002;8.472;2024-03-06T07:00:19;5.30;;;4.30;;
14734;SDS011;7458;49.002;8.472;2024-03-06T07:02:47;5.43;;;4.00;;
14734;SDS011;7458;49.002;8.472;2024-03-06T07:05:14;9.48;;;4.65;;
14734;SDS011;7458;49.002;8.472;2024-03-06T07:07:40;8.23;;;5.65;;
14734;SDS011;7458;49.002;8.472;2024-03-06T07:10:06;8.13;;;5.30;;
14734;SDS011;7458;49.002;8.472;2024-03-06T07:12:33;7.10;;;5.68;;
14734;SDS011;7458;49.002;8.472;2024-03-06T07:15:00;10.70;;;5.03;;
14734;SDS011;7458;49.002;8.472;2024-03-06T07:17:27;6.25;;;4.40;;
14734;SDS011;7458;49.002;8.472;2024-03-06T07:19:54;5.88;;;4.47;;
14734;SDS011;7458;49.002;8.472;2024-03-06T07:22:20;13.02;;;5.45;;
14734;SDS011;7458;49.002;8.472;2024-03-06T07:24:46;12.38;;;6.03;;
14734;SDS011;7458;49.002;8.472;2024-03-06T07:27:11;9.30;;;4.53;;
14734;SDS011;7458;49.002;8.472;2024-03-06T07:29:37;9.18;;;5.25;;
14734;SDS011;7458;49.002;8.472;2024-03-06T07:32:04;10.63;;;5.70;;
14734;SDS011;7458;49.002;8.472;2024-03-06T07:34:30;7.63;;;5.05;;
14734;SDS011;7458;49.002;8.472;2024-03-06T07:36:57;6.97;;;5.82;;
14734;SDS011;7458;49.002;8.472;2024-03-06T07:39:26;6.97;;;5.88;;
14734;SDS011;7458;49.002;8.472;2024-03-06T07:41:52;7.35;;;4.70;;
14734;SDS011;7458;49.002;8.472;2024-03-06T07:44:19;9.40;;;6.85;;
14734;SDS011;7458;49.002;8.472;2024-03-06T07:46:45;10.60;;;6.15;;
14734;SDS011;7458;49.002;8.472;2024-03-06T07:49:11;8.65;;;5.55;;
14734;SDS011;7458;49.002;8.472;2024-03-06T07:51:38;6.97;;;5.13;;
14734;SDS011;7458;49.002;8.472;2024-03-06T07:54:05;9.18;;;5.72;;
14734;SDS011;7458;49.002;8.472;2024-03-06T07:56:31;9.30;;;6.82;;
14734;SDS011;7458;49.002;8.472;2024-03-06T07:59:01;11.27;;;5.85;;
14734;SDS011;7458;49.002;8.472;2024-03-06T08:01:27;6.22;;;5.13;;
14734;SDS011;7458;49.002;8.472;2024-03-06T08:03:54;10.88;;;5.05;;
14734;SDS011;7458;49.002;8.472;2024-03-06T08:06:20;7.53;;;6.75;;
14734;SDS011;7458;49.002;8.472;2024-03-06T08:08:46;6.93;;;6.22;;
14734;SDS011;7458;49.002;8.472;2024-03-06T08:11:13;9.68;;;5.85;;
14734;SDS011;7458;49.002;8.472;2024-03-06T08:13:40;11.20;;;6.20;;
14734;SDS011;7458;49.002;8.472;2024-03-06T08:16:06;7.72;;;5.97;;
14734;SDS011;7458;49.002;8.472;2024-03-06T08:18:33;7.78;;;5.28;;
14734;SDS011;7458;49.002;8.472;2024-03-06T08:21:00;6.40;;;4.85;;
14734;SDS011;7458;49.002;8.472;2024-03-06T08:23:28;7.28;;;6.20;;
14734;SDS011;7458;49.002;8.472;2024-03-06T08:25:55;14.00;;;5.78;;
14734;SDS011;7458;49.002;8.472;2024-03-06T08:28:21;6.75;;;4.93;;
14734;SDS011;7458;49.002;8.472;2024-03-06T08:30:48;6.78;;;5.65;;
14734;SDS011;7458;49.002;8.472;2024-03-06T08:33:14;7.35;;;6.22;;
14734;SDS011;7458;49.002;8.472;2024-03-06T08:35:41;7.45;;;6.72;;
14734;SDS011;7458;49.002;8.472;2024-03-06T08:38:07;7.45;;;5.93;;
14734;SDS011;7458;49.002;8.472;2024-03-06T08:40:33;12.60;;;6.13;;
14734;SDS011;7458;49.002;8.472;2024-03-06T08:43:00;7.78;;;6.68;;
14734;SDS011;7458;49.002;8.472;2024-03-06T08:45:26;6.45;;;5.10;;
14734;SDS011;7458;49.002;8.472;2024-03-06T08:47:52;8.35;;;6.15;;
14734;SDS011;7458;49.002;8.472;2024-03-06T08:50:19;8.15;;;6.53;;
14734;SDS011;7458;49.002;8.472;2024-03-06T08:52:46;9.02;;;6.93;;
14734;SDS011;7458;49.002;8.472;2024-03-06T08:55:12;13.93;;;6.53;;
14734;SDS011;7458;49.002;8.472;2024-03-06T08:57:39;8.90;;;6.05;;
14734;SDS011;7458;49.002;8.472;2024-03-06T09:00:06;16.58;;;7.25;;
14734;SDS011;7458;49.002;8.472;2024-03-06T09:02:36;13.20;;;7.22;;
14734;SDS011;7458;49.002;8.472;2024-03-06T09:05:04;10.90;;;8.13;;
14734;SDS011;7458;49.002;8.472;2024-03-06T09:07:35;10.23;;;7.95;;
14734;SDS011;7458;49.002;8.472;2024-03-06T09:10:08;12.40;;;6.78;;
14734;SDS011;7458;49.002;8.472;2024-03-06T09:12:35;8.50;;;6.72;;
14734;SDS011;7458;49.002;8.472;2024-03-06T09:15:02;9.82;;;7.53;;
14734;SDS011;7458;49.002;8.472;2024-03-06T09:17:29;15.35;;;9.27;;
14734;SDS011;7458;49.002;8.472;2024-03-06T09:19:55;11.32;;;7.97;;
14734;SDS011;7458;49.002;8.472;2024-03-06T09:22:21;13.20;;;9.07;;
14734;SDS011;7458;49.002;8.472;2024-03-06T09:24:48;8.82;;;7.07;;
14734;SDS011;7458;49.002;8.472;2024-03-06T09:27:14;10.82;;;6.78;;
14734;SDS011;7458;49.002;8.472;2024-03-06T09:29:42;10.60;;;7.28;;
14734;SDS011;7458;49.002;8.472;2024-03-06T09:32:08;8.88;;;7.95;;
14734;SDS011;7458;49.002;8.472;2024-03-06T09:34:34;8.05;;;6.47;;
14734;SDS011;7458;49.002;8.472;2024-03-06T09:37:01;12.55;;;7.20;;
14734;SDS011;7458;49.002;8.472;2024-03-06T09:39:28;10.27;;;7.25;;
14734;SDS011;7458;49.002;8.472;2024-03-06T09:41:54;8.95;;;7.80;;
14734;SDS011;7458;49.002;8.472;2024-03-06T09:44:22;11.55;;;6.85;;
14734;SDS011;7458;49.002;8.472;2024-03-06T09:46:48;8.32;;;7.40;;
14734;SDS011;7458;49.002;8.472;2024-03-06T09:49:16;8.20;;;6.32;;
14734;SDS011;7458;49.002;8.472;2024-03-06T09:51:44;8.75;;;7.22;;
14734;SDS011;7458;49.002;8.472;2024-03-06T09:54:12;13.65;;;7.97;;
14734;SDS011;7458;49.002;8.472;2024-03-06T09:56:45;11.32;;;7.13;;
14734;SDS011;7458;49.002;8.472;2024-03-06T09:59:12;10.57;;;7.10;;
14734;SDS011;7458;49.002;8.472;2024-03-06T10:01:45;9.57;;;8.20;;
14734;SDS011;7458;49.002;8.472;2024-03-06T10:04:22;11.90;;;7.30;;
14734;SDS011;7458;49.002;8.472;2024-03-06T10:06:50;15.85;;;7.18;;
14734;SDS011;7458;49.002;8.472;2024-03-06T10:09:20;9.13;;;7.93;;
14734;SDS011;7458;49.002;8.472;2024-03-06T10:11:46;9.63;;;7.35;;
14734;SDS011;7458;49.002;8.472;2024-03-06T10:14:13;9.00;;;7.25;;
14734;SDS011;7458;49.002;8.472;2024-03-06T10:19:22;9.65;;;8.05;;
14734;SDS011;7458;49.002;8.472;2024-03-06T10:21:50;13.77;;;7.78;;
14734;SDS011;7458;49.002;8.472;2024-03-06T10:24:27;12.85;;;8.75;;
14734;SDS011;7458;49.002;8.472;2024-03-06T10:26:57;8.88;;;7.35;;
14734;SDS011;7458;49.002;8.472;2024-03-06T10:29:25;12.95;;;7.32;;
14734;SDS011;7458;49.002;8.472;2024-03-06T10:31:52;8.35;;;7.53;;
14734;SDS011;7458;49.002;8.472;2024-03-06T10:34:20;8.02;;;6.20;;
14734;SDS011;7458;49.002;8.472;2024-03-06T10:36:53;9.93;;;7.32;;
14734;SDS011;7458;49.002;8.472;2024-03-06T10:39:20;12.70;;;6.97;;
14734;SDS011;7458;49.002;8.472;2024-03-06T10:41:48;7.65;;;5.90;;
14734;SDS011;7458;49.002;8.472;2024-03-06T10:44:20;7.18;;;5.75;;
14734;SDS011;7458;49.002;8.472;2024-03-06T10:46:50;9.55;;;7.50;;
14734;SDS011;7458;49.002;8.472;2024-03-06T10:49:23;7.75;;;6.32;;
14734;SDS011;7458;49.002;8.472;2024-03-06T10:51:52;6.88;;;6.05;;
14734;SDS011;7458;49.002;8.472;2024-03-06T10:54:32;9.30;;;7.28;;
14734;SDS011;7458;49.002;8.472;2024-03-06T10:57:04;9.15;;;6.85;;
14734;SDS011;7458;49.002;8.472;2024-03-06T10:59:30;12.05;;;6.47;;
14734;SDS011;7458;49.002;8.472;2024-03-06T11:01:59;10.82;;;7.50;;
14734;SDS011;7458;49.002;8.472;2024-03-06T11:04:26;10.23;;;7.57;;
14734;SDS011;7458;49.002;8.472;2024-03-06T11:06:59;9.00;;;8.05;;
14734;SDS011;7458;49.002;8.472;2024-03-06T11:09:27;9.15;;;7.80;;
14734;SDS011;7458;49.002;8.472;2024-03-06T11:11:57;10.43;;;7.28;;
14734;SDS011;7458;49.002;8.472;2024-03-06T11:14:23;12.65;;;8.13;;
14734;SDS011;7458;49.002;8.472;2024-03-06T11:17:04;8.57;;;6.95;;
14734;SDS011;7458;49.002;8.472;2024-03-06T11:20:07;11.10;;;8.27;;
14734;SDS011;7458;49.002;8.472;2024-03-06T11:28:16;10.88;;;8.25;;
14734;SDS011;7458;49.002;8.472;2024-03-06T11:33:20;11.18;;;7.65;;
14734;SDS011;7458;49.002;8.472;2024-03-06T11:38:42;12.82;;;6.80;;
14734;SDS011;7458;49.002;8.472;2024-03-06T11:41:21;9.35;;;7.78;;
14734;SDS011;7458;49.002;8.472;2024-03-06T11:43:50;9.13;;;6.65;;
14734;SDS011;7458;49.002;8.472;2024-03-06T11:49:20;7.90;;;6.65;;
14734;SDS011;7458;49.002;8.472;2024-03-06T11:51:51;10.20;;;7.30;;
14734;SDS011;7458;49.002;8.472;2024-03-06T11:54:19;8.85;;;7.03;;
14734;SDS011;7458;49.002;8.472;2024-03-06T11:56:51;16.05;;;6.95;;
14734;SDS011;7458;49.002;8.472;2024-03-06T11:59:27;8.35;;;6.60;;
14734;SDS011;7458;49.002;8.472;2024-03-06T12:01:55;13.68;;;7.97;;
14734;SDS011;7458;49.002;8.472;2024-03-06T12:04:33;9.35;;;6.55;;
14734;SDS011;7458;49.002;8.472;2024-03-06T12:07:01;10.88;;;7.20;;
14734;SDS011;7458;49.002;8.472;2024-03-06T12:09:31;12.98;;;8.35;;
14734;SDS011;7458;49.002;8.472;2024-03-06T12:11:59;11.35;;;7.43;;
14734;SDS011;7458;49.002;8.472;2024-03-06T12:14:25;9.02;;;7.72;;
14734;SDS011;7458;49.002;8.472;2024-03-06T12:16:55;10.23;;;7.40;;
14734;SDS011;7458;49.002;8.472;2024-03-06T12:19:25;9.98;;;6.85;;
14734;SDS011;7458;49.002;8.472;2024-03-06T12:21:53;9.45;;;8.02;;
14734;SDS011;7458;49.002;8.472;2024-03-06T12:24:19;10.73;;;6.60;;
14734;SDS011;7458;49.002;8.472;2024-03-06T12:26:46;12.25;;;8.90;;
14734;SDS011;7458;49.002;8.472;2024-03-06T12:29:28;13.75;;;8.10;;
14734;SDS011;7458;49.002;8.472;2024-03-06T12:32:19;8.82;;;7.80;;
14734;SDS011;7458;49.002;8.472;2024-03-06T12:34:58;9.63;;;8.35;;
14734;SDS011;7458;49.002;8.472;2024-03-06T12:39:57;12.57;;;8.13;;
14734;SDS011;7458;49.002;8.472;2024-03-06T12:42:24;9.70;;;8.25;;
14734;SDS011;7458;49.002;8.472;2024-03-06T12:44:50;14.35;;;8.02;;
14734;SDS011;7458;49.002;8.472;2024-03-06T12:47:17;9.57;;;8.10;;
14734;SDS011;7458;49.002;8.472;2024-03-06T12:49:43;8.80;;;6.53;;
14734;SDS011;7458;49.002;8.472;2024-03-06T12:52:09;9.10;;;7.97;;
14734;SDS011;7458;49.002;8.472;2024-03-06T12:54:35;12.43;;;8.60;;
14734;SDS011;7458;49.002;8.472;2024-03-06T12:57:01;8.48;;;7.57;;
14734;SDS011;7458;49.002;8.472;2024-03-06T12:59:28;8.15;;;7.30;;
14734;SDS011;7458;49.002;8.472;2024-03-06T13:01:54;11.10;;;9.32;;
14734;SDS011;7458;49.002;8.472;2024-03-06T13:04:22;8.80;;;7.05;;
14734;SDS011;7458;49.002;8.472;2024-03-06T13:06:48;10.48;;;7.80;;
14734;SDS011;7458;49.002;8.472;2024-03-06T13:09:14;19.05;;;8.57;;
14734;SDS011;7458;49.002;8.472;2024-03-06T13:11:40;11.45;;;8.02;;
14734;SDS011;7458;49.002;8.472;2024-03-06T13:14:07;12.40;;;9.20;;
14734;SDS011;7458;49.002;8.472;2024-03-06T13:16:36;13.40;;;7.88;;
14734;SDS011;7458;49.002;8.472;2024-03-06T13:19:02;10.30;;;7.70;;
14734;SDS011;7458;49.002;8.472;2024-03-06T13:21:29;16.10;;;7.47;;
14734;SDS011;7458;49.002;8.472;2024-03-06T13:23:55;14.68;;;8.38;;
14734;SDS011;7458;49.002;8.472;2024-03-06T13:26:23;9.38;;;7.32;;
14734;SDS011;7458;49.002;8.472;2024-03-06T13:28:49;10.13;;;7.90;;
14734;SDS011;7458;49.002;8.472;2024-03-06T13:31:16;10.15;;;6.90;;
14734;SDS011;7458;49.002;8.472;2024-03-06T13:33:42;14.07;;;8.77;;
14734;SDS011;7458;49.002;8.472;2024-03-06T13:36:08;9.18;;;8.07;;
14734;SDS011;7458;49.002;8.472;2024-03-06T13:38:34;12.00;;;9.23;;
14734;SDS011;7458;49.002;8.472;2024-03-06T13:41:00;10.02;;;8.13;;
14734;SDS011;7458;49.002;8.472;2024-03-06T13:43:27;14.48;;;8.85;;
14734;SDS011;7458;49.002;8.472;2024-03-06T13:45:54;8.95;;;8.07;;
14734;SDS011;7458;49.002;8.472;2024-03-06T13:48:20;12.13;;;9.23;;
14734;SDS011;7458;49.002;8.472;2024-03-06T13:50:47;9.85;;;8.55;;
14734;SDS011;7458;49.002;8.472;2024-03-06T13:53:15;16.75;;;7.22;;
14734;SDS011;7458;49.002;8.472;2024-03-06T13:55:40;13.52;;;8.13;;
14734;SDS011;7458;49.002;8.472;2024-03-06T13:58:07;9.60;;;8.18;;
14734;SDS011;7458;49.002;8.472;2024-03-06T14:00:33;9.43;;;8.32;;
14734;SDS011;7458;49.002;8.472;2024-03-06T14:03:02;10.98;;;8.27;;
14734;SDS011;7458;49.002;8.472;2024-03-06T14:05:29;10.43;;;8.75;;
14734;SDS011;7458;49.002;8.472;2024-03-06T14:07:55;15.90;;;9.80;;
14734;SDS011;7458;49.002;8.472;2024-03-06T14:10:21;12.85;;;7.80;;
14734;SDS011;7458;49.002;8.472;2024-03-06T14:12:49;9.10;;;8.07;;
14734;SDS011;7458;49.002;8.472;2024-03-06T14:15:20;11.43;;;9.50;;
14734;SDS011;7458;49.002;8.472;2024-03-06T14:17:47;10.05;;;8.88;;
14734;SDS011;7458;49.002;8.472;2024-03-06T14:20:13;12.57;;;9.15;;
14734;SDS011;7458;49.002;8.472;2024-03-06T14:22:43;10.95;;;9.45;;
14734;SDS011;7458;49.002;8.472;2024-03-06T14:25:09;11.05;;;8.73;;
14734;SDS011;7458;49.002;8.472;2024-03-06T14:27:36;11.07;;;9.88;;
14734;SDS011;7458;49.002;8.472;2024-03-06T14:30:05;9.65;;;8.68;;
14734;SDS011;7458;49.002;8.472;2024-03-06T14:32:36;11.00;;;7.90;;
14734;SDS011;7458;49.002;8.472;2024-03-06T14:35:05;13.45;;;10.23;;
14734;SDS011;7458;49.002;8.472;2024-03-06T14:37:35;10.60;;;9.35;;
14734;SDS011;7458;49.002;8.472;2024-03-06T14:40:00;12.68;;;9.50;;
14734;SDS011;7458;49.002;8.472;2024-03-06T14:42:33;14.48;;;9.07;;
14734;SDS011;7458;49.002;8.472;2024-03-06T14:44:59;11.43;;;8.93;;
14734;SDS011;7458;49.002;8.472;2024-03-06T14:47:26;12.57;;;10.40;;
14734;SDS011;7458;49.002;8.472;2024-03-06T14:49:52;17.88;;;11.65;;
14734;SDS011;7458;49.002;8.472;2024-03-06T14:52:18;15.07;;;11.30;;
14734;SDS011;7458;49.002;8.472;2024-03-06T14:54:45;11.38;;;9.93;;
14734;SDS011;7458;49.002;8.472;2024-03-06T14:57:12;14.35;;;11.82;;
14734;SDS011;7458;49.002;8.472;2024-03-06T14:59:38;16.00;;;10.52;;
14734;SDS011;7458;49.002;8.472;2024-03-06T15:02:05;14.40;;;9.45;;
14734;SDS011;7458;49.002;8.472;2024-03-06T15:04:31;12.88;;;9.45;;
14734;SDS011;7458;49.002;8.472;2024-03-06T15:06:57;14.85;;;11.02;;
14734;SDS011;7458;49.002;8.472;2024-03-06T15:09:24;14.23;;;11.45;;
14734;SDS011;7458;49.002;8.472;2024-03-06T15:11:51;15.10;;;12.05;;
14734;SDS011;7458;49.002;8.472;2024-03-06T15:14:18;19.00;;;12.07;;
14734;SDS011;7458;49.002;8.472;2024-03-06T15:16:45;19.95;;;11.68;;